Time;durP1;ratioP1;P1;durP2;ratioP2;P2;SDS_P1;SDS_P2;PMS_P1;PMS_P2;Temp;Humidity;BMP_temperature;BMP_pressure;BME280_temperature;BME280_humidity;BME280_pressure;Samples;Min_cycle;Max_cycle;Signal;HPM_P1;HPM_P2
2022/01/26 00:00:30;;;;;;;11.30;5.05;;;;;;;-6.59;50.18;94648.06;5004310;28;20034;-73
2022/01/26 00:05:52;;;;;;;13.88;4.97;;;;;;;-6.55;50.41;94644.09;5003916;28;20041;-73
2022/01/26 00:08:23;;;;;;;10.40;4.65;;;;;;;-6.58;49.92;94643.66;5004168;28;20061;-72
2022/01/26 00:10:49;;;;;;;12.00;5.53;;;;;;;-6.58;49.96;94639.28;5004204;28;20034;-74
2022/01/26 00:13:14;;;;;;;11.55;4.78;;;;;;;-6.50;49.69;94646.13;5004048;28;20380;-73
2022/01/26 00:15:40;;;;;;;16.40;5.95;;;;;;;-6.43;49.79;94647.00;5004030;28;20038;-74
2022/01/26 00:18:05;;;;;;;11.38;4.25;;;;;;;-6.47;49.64;94650.94;5003964;28;20068;-74
2022/01/26 00:20:39;;;;;;;10.80;4.15;;;;;;;-6.54;49.73;94629.34;5003958;28;20038;-74
2022/01/26 00:25:44;;;;;;;11.15;5.50;;;;;;;-6.67;50.36;94638.63;5003761;28;20034;-73
2022/01/26 00:28:59;;;;;;;15.10;4.63;;;;;;;-6.64;49.90;94631.44;5003757;28;20026;-74
2022/01/26 00:38:53;;;;;;;11.35;4.97;;;;;;;-6.58;50.18;94622.91;5003642;28;20264;-74
2022/01/26 00:41:34;;;;;;;17.75;5.70;;;;;;;-6.51;50.21;94626.38;5003767;28;20026;-73
2022/01/26 00:44:00;;;;;;;14.35;5.38;;;;;;;-6.58;50.39;94617.75;5003535;28;20022;-74
2022/01/26 00:46:26;;;;;;;16.17;5.65;;;;;;;-6.75;50.20;94617.22;5003222;28;20209;-74
2022/01/26 00:48:52;;;;;;;11.85;5.03;;;;;;;-6.73;49.80;94620.41;5003349;28;20042;-73
2022/01/26 00:51:21;;;;;;;10.77;4.05;;;;;;;-6.66;50.54;94627.25;5003654;28;20224;-74
2022/01/26 00:53:53;;;;;;;12.20;4.80;;;;;;;-6.60;49.87;94619.72;5003590;28;20033;-73
2022/01/26 00:56:19;;;;;;;14.13;5.22;;;;;;;-6.55;49.91;94619.97;5004945;28;20041;-74
2022/01/26 00:58:45;;;;;;;16.38;5.10;;;;;;;-6.58;50.03;94620.31;5003166;28;20220;-74
2022/01/26 01:01:11;;;;;;;11.93;5.35;;;;;;;-6.49;49.93;94625.19;5003137;28;20097;-73
2022/01/26 01:03:40;;;;;;;16.30;5.13;;;;;;;-6.47;49.88;94632.78;5003516;28;20034;-74
2022/01/26 01:06:18;;;;;;;17.95;6.57;;;;;;;-6.50;50.06;94615.78;5003242;28;20034;-73
2022/01/26 01:08:45;;;;;;;12.77;5.35;;;;;;;-6.43;50.60;94610.69;5003126;28;20219;-73
2022/01/26 01:11:11;;;;;;;12.93;4.55;;;;;;;-6.37;50.41;94617.69;5003045;28;20089;-74
2022/01/26 01:13:39;;;;;;;19.60;5.05;;;;;;;-6.29;49.96;94620.16;5003010;28;20026;-73
2022/01/26 01:16:07;;;;;;;9.55;4.70;;;;;;;-6.28;50.02;94608.75;5003189;28;20220;-73
2022/01/26 01:18:49;;;;;;;16.52;5.30;;;;;;;-6.26;50.78;94622.34;5002878;28;20018;-74
2022/01/26 01:31:46;;;;;;;15.70;5.75;;;;;;;-6.21;51.36;94613.97;5002851;28;20114;-74
2022/01/26 01:34:15;;;;;;;16.15;7.20;;;;;;;-6.21;51.95;94608.00;5002757;28;20023;-73
2022/01/26 01:36:44;;;;;;;13.45;5.95;;;;;;;-6.20;52.37;94614.81;5002816;28;20027;-73
2022/01/26 01:39:10;;;;;;;19.30;6.47;;;;;;;-6.18;52.81;94613.63;5002836;28;20375;-73
2022/01/26 01:41:39;;;;;;;23.77;6.47;;;;;;;-6.16;52.66;94606.44;5002773;28;20028;-74
2022/01/26 01:44:05;;;;;;;30.30;9.05;;;;;;;-6.07;53.61;94607.88;5002683;28;20269;-74
2022/01/26 01:46:32;;;;;;;27.48;9.20;;;;;;;-5.94;53.44;94599.34;5005400;28;20014;-73
2022/01/26 01:48:58;;;;;;;25.65;11.00;;;;;;;-5.81;53.78;94600.41;5006506;28;20073;-73
2022/01/26 01:51:39;;;;;;;38.05;14.82;;;;;;;-5.70;53.69;94595.47;4989133;28;20276;-73
2022/01/26 01:54:12;;;;;;;59.78;16.85;;;;;;;-5.56;53.64;94593.69;5006607;28;20255;-73
2022/01/26 01:56:39;;;;;;;49.75;19.25;;;;;;;-5.46;52.72;94586.31;5008619;28;20335;-73
2022/01/26 01:59:04;;;;;;;49.35;18.23;;;;;;;-5.38;52.44;94584.56;5006354;28;20030;-72
2022/01/26 02:01:30;;;;;;;52.53;19.05;;;;;;;-5.31;52.57;94582.75;5006454;28;20308;-72
2022/01/26 02:03:55;;;;;;;57.33;20.00;;;;;;;-5.33;52.46;94579.56;5006217;28;20026;-72
2022/01/26 02:06:22;;;;;;;51.72;20.10;;;;;;;-5.32;52.65;94576.75;5006458;28;20030;-72
2022/01/26 02:08:48;;;;;;;43.22;18.65;;;;;;;-5.27;52.58;94574.38;5006533;28;20026;-73
2022/01/26 02:11:14;;;;;;;41.10;17.25;;;;;;;-5.35;51.98;94571.16;5006225;28;20056;-73
2022/01/26 02:21:52;;;;;;;47.88;18.27;;;;;;;-5.57;51.75;94581.72;5006244;28;20073;-73
2022/01/26 03:09:37;;;;;;;5.15;2.35;;;;;;;-5.46;50.90;94555.16;4984576;28;20342;-74
2022/01/26 03:12:05;;;;;;;6.80;3.53;;;;;;;-5.34;51.11;94555.38;5005237;28;20022;-74
2022/01/26 03:19:54;;;;;;;10.20;4.70;;;;;;;-5.51;49.35;94572.34;5005215;28;20355;-73
2022/01/26 03:30:29;;;;;;;10.52;4.65;;;;;;;-5.30;49.17;94555.78;5004850;28;20015;-73
2022/01/26 03:35:58;;;;;;;15.38;5.30;;;;;;;-5.48;50.44;94554.53;5004796;28;20022;-74
2022/01/26 03:39:00;;;;;;;10.60;4.88;;;;;;;-5.54;49.50;94567.53;5001621;28;20035;-74
2022/01/26 03:43:47;;;;;;;10.45;3.90;;;;;;;-5.54;49.03;94563.13;5004891;28;20030;-73
2022/01/26 03:46:12;;;;;;;14.98;4.85;;;;;;;-5.54;49.14;94554.53;5004696;28;20061;-73
2022/01/26 03:48:37;;;;;;;17.08;5.30;;;;;;;-5.46;49.31;94554.34;5004220;28;20165;-73
2022/01/26 03:51:03;;;;;;;12.00;4.57;;;;;;;-5.48;49.56;94561.53;5004474;28;20212;-73
2022/01/26 03:53:29;;;;;;;13.55;5.95;;;;;;;-5.44;49.68;94550.56;5004441;28;20065;-74
2022/01/26 03:55:54;;;;;;;11.07;4.97;;;;;;;-5.39;49.60;94543.97;5004361;28;20040;-74
2022/01/26 03:58:19;;;;;;;11.68;5.35;;;;;;;-5.40;49.91;94552.78;5004451;28;20308;-74
2022/01/26 04:00:45;;;;;;;9.32;4.20;;;;;;;-5.37;50.09;94534.19;5004409;28;20030;-74
2022/01/26 04:03:11;;;;;;;16.77;6.22;;;;;;;-5.37;50.27;94557.56;5004122;28;20037;-74
2022/01/26 04:05:36;;;;;;;11.20;5.13;;;;;;;-5.33;49.94;94553.56;5004203;28;20343;-73
2022/01/26 04:08:09;;;;;;;13.15;4.72;;;;;;;-5.37;50.04;94549.75;5003890;28;20089;-73
2022/01/26 04:13:09;;;;;;;11.75;4.72;;;;;;;-5.32;50.08;94529.19;5004187;28;20324;-73
2022/01/26 04:15:35;;;;;;;13.32;4.75;;;;;;;-5.19;48.85;94539.63;4986555;28;20049;-73
2022/01/26 04:18:05;;;;;;;13.32;4.50;;;;;;;-5.23;48.92;94548.81;5003925;28;20113;-74
2022/01/26 04:20:35;;;;;;;12.18;5.60;;;;;;;-5.13;48.61;94535.41;5002785;28;20034;-74
2022/01/26 04:23:14;;;;;;;15.27;4.43;;;;;;;-5.12;48.28;94537.81;5003880;28;20022;-74
2022/01/26 04:25:42;;;;;;;18.95;5.28;;;;;;;-5.16;48.21;94541.00;5003723;28;20018;-75
2022/01/26 04:28:12;;;;;;;17.40;4.70;;;;;;;-5.12;46.47;94535.22;5003909;28;20125;-74
2022/01/26 04:30:37;;;;;;;6.32;3.67;;;;;;;-5.10;46.09;94525.41;5003828;28;20044;-74
2022/01/26 04:33:05;;;;;;;15.02;4.32;;;;;;;-5.07;46.43;94532.00;5003832;28;20023;-74
2022/01/26 04:35:31;;;;;;;7.40;4.07;;;;;;;-5.09;46.05;94519.22;5003520;28;20279;-72
2022/01/26 04:40:52;;;;;;;11.13;4.35;;;;;;;-4.86;47.36;94533.63;5003653;28;20098;-73
2022/01/26 04:43:22;;;;;;;26.42;5.53;;;;;;;-4.84;47.64;94534.22;5003559;28;20028;-73
2022/01/26 04:45:48;;;;;;;17.23;5.55;;;;;;;-4.78;47.21;94532.59;5003626;28;20030;-74
2022/01/26 04:48:13;;;;;;;12.02;5.07;;;;;;;-4.77;47.32;94542.81;5003663;28;20053;-74
2022/01/26 04:50:39;;;;;;;12.43;5.38;;;;;;;-4.72;47.31;94544.81;5003382;28;20338;-74
2022/01/26 04:53:04;;;;;;;16.35;5.80;;;;;;;-4.76;47.93;94530.59;5003290;28;20064;-74
2022/01/26 04:55:30;;;;;;;15.70;5.57;;;;;;;-4.76;46.47;94522.81;5003480;28;20335;-74
2022/01/26 04:57:55;;;;;;;12.48;4.50;;;;;;;-4.71;47.15;94531.59;5003361;28;20022;-74
2022/01/26 05:00:21;;;;;;;13.80;5.25;;;;;;;-4.67;47.21;94525.00;5003388;28;20026;-74
2022/01/26 05:02:46;;;;;;;13.85;4.57;;;;;;;-4.60;46.86;94517.19;5003092;28;20026;-74
2022/01/26 05:05:12;;;;;;;13.30;4.68;;;;;;;-4.54;47.20;94525.97;5003226;28;20328;-74
2022/01/26 05:07:38;;;;;;;16.33;5.78;;;;;;;-4.49;47.06;94520.97;5003308;28;20291;-74
2022/01/26 05:10:04;;;;;;;12.73;3.85;;;;;;;-4.50;47.79;94524.56;5003146;28;20029;-74
2022/01/26 05:12:30;;;;;;;15.57;5.07;;;;;;;-4.55;47.54;94529.59;5003454;28;20046;-73
2022/01/26 05:14:55;;;;;;;12.50;5.05;;;;;;;-4.57;47.78;94529.00;5002963;28;20312;-74
2022/01/26 05:17:22;;;;;;;20.60;4.45;;;;;;;-4.59;48.05;94520.59;5003133;28;20026;-75
2022/01/26 05:19:53;;;;;;;28.92;6.40;;;;;;;-4.61;47.92;94538.22;5002616;28;20026;-74
2022/01/26 05:22:18;;;;;;;14.20;5.10;;;;;;;-4.61;48.50;94525.22;5003138;28;20037;-73
2022/01/26 05:24:44;;;;;;;15.52;6.40;;;;;;;-4.57;49.26;94534.22;5003054;28;20320;-74
2022/01/26 05:27:09;;;;;;;17.67;4.38;;;;;;;-4.66;50.34;94526.63;5002981;28;20228;-73
2022/01/26 05:29:35;;;;;;;12.60;5.10;;;;;;;-4.69;50.36;94529.59;5002731;28;20058;-74
2022/01/26 05:32:00;;;;;;;10.57;5.65;;;;;;;-4.67;50.90;94524.22;5002919;28;20124;-73
2022/01/26 05:34:26;;;;;;;12.77;5.40;;;;;;;-4.59;50.83;94521.41;5002717;28;20093;-72
2022/01/26 05:36:51;;;;;;;12.52;5.68;;;;;;;-4.71;51.55;94526.41;5002879;28;20089;-73
2022/01/26 05:39:16;;;;;;;21.67;5.65;;;;;;;-4.69;52.19;94503.59;5002778;28;20034;-73
2022/01/26 05:41:42;;;;;;;11.63;5.20;;;;;;;-4.63;53.11;94510.59;5002874;28;20034;-73
2022/01/26 05:44:08;;;;;;;14.15;5.75;;;;;;;-4.71;53.72;94497.00;5002741;28;20030;-73
2022/01/26 05:46:46;;;;;;;15.55;5.85;;;;;;;-4.74;54.04;94500.81;5002555;28;20334;-73
2022/01/26 05:49:13;;;;;;;11.30;5.72;;;;;;;-4.68;54.28;94510.41;5002550;28;20118;-72
2022/01/26 05:51:39;;;;;;;13.27;4.85;;;;;;;-4.68;54.82;94505.22;5002455;28;20034;-74
2022/01/26 05:54:05;;;;;;;18.88;6.82;;;;;;;-4.67;54.96;94512.00;5002500;28;20026;-74
2022/01/26 05:56:31;;;;;;;14.80;5.78;;;;;;;-4.63;54.89;94502.00;5002627;28;20037;-74
2022/01/26 05:58:58;;;;;;;12.18;6.43;;;;;;;-4.58;55.55;94519.59;5002596;28;20034;-74
2022/01/26 06:01:24;;;;;;;16.25;6.43;;;;;;;-4.58;55.95;94509.19;5002564;28;20023;-73
2022/01/26 06:03:49;;;;;;;24.58;8.20;;;;;;;-4.57;55.78;94511.59;5002767;28;20050;-73
2022/01/26 06:06:18;;;;;;;27.80;9.95;;;;;;;-4.58;56.27;94511.78;5002645;28;20022;-73
2022/01/26 06:08:44;;;;;;;17.38;7.25;;;;;;;-4.59;56.24;94512.78;5002849;28;20018;-73
2022/01/26 06:11:09;;;;;;;16.67;5.00;;;;;;;-4.63;56.09;94515.00;5002810;28;20101;-74
2022/01/26 06:13:35;;;;;;;29.52;8.55;;;;;;;-4.66;56.64;94513.59;5002448;28;20029;-73
2022/01/26 06:16:00;;;;;;;16.92;7.65;;;;;;;-4.58;56.78;94510.00;5002433;28;20054;-74
2022/01/26 06:18:26;;;;;;;17.23;7.05;;;;;;;-4.56;56.52;94510.59;5002720;28;20037;-74
2022/01/26 06:20:51;;;;;;;19.13;7.32;;;;;;;-4.61;58.05;94510.38;5002626;28;20027;-74
2022/01/26 06:23:17;;;;;;;23.63;9.23;;;;;;;-4.51;58.60;94525.59;5002671;28;20253;-75
2022/01/26 06:25:44;;;;;;;16.77;7.80;;;;;;;-4.49;59.39;94526.19;5002371;28;20094;-74
2022/01/26 06:28:12;;;;;;;17.92;6.43;;;;;;;-4.49;60.81;94519.16;5002481;28;20048;-74
2022/01/26 06:30:39;;;;;;;25.55;8.25;;;;;;;-4.41;60.87;94520.75;5002346;28;20022;-74
2022/01/26 06:33:07;;;;;;;31.40;10.30;;;;;;;-4.34;61.71;94531.16;5005629;28;20022;-74
2022/01/26 06:35:34;;;;;;;24.95;9.02;;;;;;;-4.37;62.23;94527.16;5005955;28;20053;-74
2022/01/26 06:37:59;;;;;;;13.13;5.90;;;;;;;-4.43;63.00;94523.56;5005837;28;20026;-73
2022/01/26 06:40:25;;;;;;;20.73;7.70;;;;;;;-4.49;63.46;94523.59;5005810;28;20022;-74
2022/01/26 06:42:54;;;;;;;23.73;9.23;;;;;;;-4.42;65.26;94521.75;5006160;28;20022;-71
2022/01/26 06:45:33;;;;;;;24.20;10.68;;;;;;;-3.86;65.02;94521.19;5006481;28;20042;-73
2022/01/26 06:50:25;;;;;;;28.75;10.50;;;;;;;-4.01;62.73;94510.22;5005595;28;20022;-74
2022/01/26 06:52:50;;;;;;;19.67;8.88;;;;;;;-4.01;63.15;94515.41;4988350;28;20100;-73
2022/01/26 06:55:17;;;;;;;26.63;9.15;;;;;;;-4.04;63.42;94516.63;5005589;28;20030;-76
2022/01/26 06:57:43;;;;;;;23.00;10.05;;;;;;;-4.05;63.55;94532.47;5005638;28;20026;-75
2022/01/26 07:00:10;;;;;;;23.30;9.77;;;;;;;-4.16;64.28;94528.69;5005459;28;20042;-74
2022/01/26 07:02:37;;;;;;;21.45;9.60;;;;;;;-4.20;64.36;94527.50;5005399;28;20149;-70
2022/01/26 07:05:03;;;;;;;21.92;9.80;;;;;;;-4.20;65.15;94531.94;5005404;28;20033;-70
2022/01/26 07:07:29;;;;;;;33.05;10.77;;;;;;;-4.17;65.17;94541.91;5005267;28;20018;-70
2022/01/26 07:09:54;;;;;;;22.70;9.80;;;;;;;-4.21;65.98;94544.16;5005303;28;20033;-70
2022/01/26 07:12:20;;;;;;;20.63;9.18;;;;;;;-4.21;66.01;94536.34;5005504;28;20030;-70
2022/01/26 07:22:55;;;;;;;21.17;8.80;;;;;;;-4.21;66.94;94541.53;5005093;28;20092;-70
2022/01/26 07:25:20;;;;;;;15.93;7.13;;;;;;;-4.11;65.93;94534.09;5005138;28;20034;-70
2022/01/26 07:27:46;;;;;;;22.08;8.77;;;;;;;-4.11;66.33;94536.72;5004982;28;20146;-70
2022/01/26 07:30:12;;;;;;;23.38;9.82;;;;;;;-4.08;65.69;94519.88;4987316;28;20034;-70
2022/01/26 07:32:37;;;;;;;20.65;8.40;;;;;;;-4.08;66.31;94522.47;5004758;28;20034;-71
2022/01/26 07:35:04;;;;;;;26.15;9.93;;;;;;;-3.96;65.95;94533.84;5004954;28;20022;-70
2022/01/26 07:37:30;;;;;;;19.40;8.02;;;;;;;-3.93;66.77;94528.25;5004597;28;20022;-69
2022/01/26 07:40:06;;;;;;;23.70;9.43;;;;;;;-3.92;67.04;94532.44;5004433;28;20018;-70
2022/01/26 07:42:32;;;;;;;29.38;10.10;;;;;;;-3.91;66.47;94523.63;5004404;28;20030;-70
2022/01/26 07:44:57;;;;;;;18.50;8.27;;;;;;;-3.90;66.71;94530.41;5003592;28;20022;-70
2022/01/26 07:47:23;;;;;;;21.15;8.52;;;;;;;-3.92;66.64;94534.25;5002715;28;20232;-70
2022/01/26 07:49:52;;;;;;;21.73;9.20;;;;;;;-3.89;66.60;94536.41;5002800;28;20029;-69
2022/01/26 07:52:18;;;;;;;16.83;7.78;;;;;;;-3.94;66.63;94531.84;5002545;28;20030;-69
2022/01/26 07:54:45;;;;;;;23.60;8.07;;;;;;;-3.97;67.37;94537.44;4987068;28;20052;-69
2022/01/26 07:57:11;;;;;;;16.35;6.47;;;;;;;-4.00;67.55;94532.66;5004343;28;20022;-68
2022/01/26 07:59:36;;;;;;;17.75;7.55;;;;;;;-4.07;67.95;94539.69;5004119;28;20018;-69
2022/01/26 08:02:02;;;;;;;25.92;8.68;;;;;;;-4.14;68.25;94551.94;5003081;28;20331;-69
2022/01/26 08:04:27;;;;;;;16.02;8.45;;;;;;;-4.17;67.79;94544.50;5004376;28;20045;-69
2022/01/26 08:06:53;;;;;;;19.85;7.80;;;;;;;-4.18;68.30;94535.91;5004467;28;20395;-69
2022/01/26 08:09:18;;;;;;;20.70;7.68;;;;;;;-4.15;68.38;94539.91;5004333;28;20025;-68
2022/01/26 08:11:43;;;;;;;31.23;11.43;;;;;;;-4.09;68.10;94539.09;5004112;28;20018;-69
2022/01/26 08:14:09;;;;;;;19.90;8.80;;;;;;;-3.96;67.67;94544.25;5004165;28;20087;-68
2022/01/26 08:16:35;;;;;;;21.55;9.18;;;;;;;-3.94;67.61;94539.66;5004071;28;20185;-69
2022/01/26 08:19:00;;;;;;;16.20;7.55;;;;;;;-3.90;67.48;94540.84;5003935;28;20101;-70
2022/01/26 08:21:26;;;;;;;26.67;10.27;;;;;;;-3.85;67.69;94541.03;5003934;28;20026;-69
2022/01/26 08:23:52;;;;;;;18.48;7.82;;;;;;;-3.89;68.07;94539.84;5004287;28;20328;-69
2022/01/26 08:26:24;;;;;;;16.33;7.65;;;;;;;-3.84;68.51;94537.41;5003797;28;20093;-70
2022/01/26 08:28:54;;;;;;;22.48;8.95;;;;;;;-3.70;68.33;94532.16;5003882;28;20022;-70
2022/01/26 08:31:20;;;;;;;14.27;5.85;;;;;;;-3.75;67.90;94537.16;5004087;28;20030;-69
2022/01/26 08:33:46;;;;;;;21.27;8.00;;;;;;;-3.73;68.56;94528.13;5003767;28;20347;-70
2022/01/26 08:36:11;;;;;;;12.35;7.25;;;;;;;-3.67;68.41;94527.28;5003682;28;20018;-69
2022/01/26 08:38:37;;;;;;;17.40;5.90;;;;;;;-3.57;68.39;94542.50;5003478;28;20076;-69
2022/01/26 08:41:03;;;;;;;11.25;5.82;;;;;;;-3.59;68.27;94531.47;5003535;28;20018;-69
2022/01/26 08:43:28;;;;;;;12.07;5.60;;;;;;;-3.56;67.42;94544.09;5003617;28;20040;-69
2022/01/26 08:45:54;;;;;;;13.75;5.40;;;;;;;-3.54;68.00;94541.25;5003653;28;20042;-68
2022/01/26 08:48:20;;;;;;;16.67;6.13;;;;;;;-3.51;68.40;94549.47;5003440;28;20038;-69
2022/01/26 08:50:45;;;;;;;17.45;6.47;;;;;;;-3.51;67.88;94554.69;5003501;28;20022;-69
2022/01/26 08:53:11;;;;;;;11.25;5.93;;;;;;;-3.53;67.75;94554.09;4986005;28;20212;-69
2022/01/26 08:55:36;;;;;;;13.05;6.20;;;;;;;-3.51;68.01;94549.47;5002399;28;20045;-69
2022/01/26 08:58:03;;;;;;;14.23;6.43;;;;;;;-3.46;67.68;94544.44;5003147;28;20023;-70
2022/01/26 09:00:29;;;;;;;12.50;5.65;;;;;;;-3.37;67.75;94558.03;5003192;28;20049;-70
2022/01/26 09:02:55;;;;;;;14.13;6.43;;;;;;;-3.30;67.26;94561.38;5003484;28;20181;-69
2022/01/26 09:05:20;;;;;;;11.93;5.90;;;;;;;-3.21;67.46;94550.72;5003385;28;20042;-71
2022/01/26 09:07:49;;;;;;;21.27;8.48;;;;;;;-3.14;67.63;94546.25;5003232;28;20252;-70
2022/01/26 09:10:15;;;;;;;21.05;6.40;;;;;;;-3.13;67.09;94548.66;5003005;28;20429;-70
2022/01/26 09:12:42;;;;;;;18.65;6.90;;;;;;;-2.97;66.58;94554.38;5003033;28;20289;-70
2022/01/26 09:15:10;;;;;;;23.60;7.45;;;;;;;-2.94;66.61;94549.53;5003068;28;20048;-69
2022/01/26 09:17:36;;;;;;;15.45;6.72;;;;;;;-2.99;66.34;94559.00;5002932;28;20042;-70
2022/01/26 09:20:04;;;;;;;14.60;6.20;;;;;;;-2.97;66.39;94562.19;5002934;28;20030;-71
2022/01/26 09:22:30;;;;;;;14.63;6.28;;;;;;;-2.90;66.63;94568.97;5003072;28;20022;-70
2022/01/26 09:24:55;;;;;;;15.32;5.35;;;;;;;-2.95;65.89;94571.41;5002736;28;20439;-70
2022/01/26 09:27:21;;;;;;;11.75;5.65;;;;;;;-2.97;66.29;94554.38;5003057;28;20054;-70
2022/01/26 09:29:46;;;;;;;17.33;7.13;;;;;;;-2.93;66.69;94556.34;5002821;28;20022;-70
2022/01/26 09:32:14;;;;;;;10.93;5.47;;;;;;;-2.98;66.53;94552.78;5002904;28;20022;-70
2022/01/26 09:34:41;;;;;;;14.35;5.70;;;;;;;-2.93;66.37;94552.94;5002694;28;20069;-68
2022/01/26 09:37:10;;;;;;;29.27;8.27;;;;;;;-2.89;66.54;94559.31;5002809;28;20026;-69
2022/01/26 09:39:37;;;;;;;15.77;7.20;;;;;;;-2.92;66.31;94564.97;5002698;28;20085;-68
2022/01/26 09:42:03;;;;;;;21.45;8.63;;;;;;;-2.95;66.05;94560.16;5002709;28;20093;-70
2022/01/26 09:44:32;;;;;;;22.23;9.23;;;;;;;-2.91;66.10;94553.50;4985391;28;20134;-69
2022/01/26 09:46:58;;;;;;;32.95;8.70;;;;;;;-2.98;66.21;94544.94;4985104;28;20034;-70
2022/01/26 09:49:31;;;;;;;22.13;8.30;;;;;;;-2.90;66.05;94545.47;5002556;28;20046;-70
2022/01/26 09:52:01;;;;;;;16.67;8.35;;;;;;;-2.91;66.27;94535.25;4985388;28;20022;-70
2022/01/26 09:54:30;;;;;;;14.95;7.38;;;;;;;-2.73;66.01;94540.53;5002825;28;20025;-70
2022/01/26 09:57:01;;;;;;;19.55;8.32;;;;;;;-2.66;66.25;94543.88;5002456;28;20022;-71
2022/01/26 09:59:26;;;;;;;14.57;6.63;;;;;;;-2.65;66.37;94534.25;5002633;28;20026;-69
2022/01/26 10:01:52;;;;;;;10.85;5.55;;;;;;;-2.72;66.04;94534.31;5002814;28;20029;-68
2022/01/26 10:04:21;;;;;;;18.48;6.22;;;;;;;-2.64;66.42;94541.88;4985197;28;20019;-68
2022/01/26 10:07:11;;;;;;;11.07;4.55;;;;;;;-2.59;66.10;94530.78;5003961;28;20030;-68
2022/01/26 10:17:45;;;;;;;17.67;7.85;;;;;;;-2.53;66.65;94536.97;5006125;28;20030;-68
2022/01/26 10:20:17;;;;;;;11.88;6.20;;;;;;;-2.59;66.06;94527.38;5006169;28;20033;-68
2022/01/26 10:22:43;;;;;;;11.82;5.32;;;;;;;-2.53;66.68;94527.31;5006007;28;20093;-69
2022/01/26 10:25:12;;;;;;;10.88;5.43;;;;;;;-2.51;66.22;94525.28;5006008;28;20351;-69
2022/01/26 10:27:53;;;;;;;13.05;5.40;;;;;;;-2.57;66.49;94517.53;5006091;28;20024;-70
2022/01/26 10:30:19;;;;;;;16.15;6.57;;;;;;;-2.55;66.92;94518.09;4988748;28;20186;-69
2022/01/26 10:32:45;;;;;;;8.77;4.38;;;;;;;-2.53;66.99;94524.69;5006098;28;20276;-70
2022/01/26 10:35:14;;;;;;;14.35;5.65;;;;;;;-2.62;67.26;94518.16;5006093;28;20022;-70
2022/01/26 10:37:48;;;;;;;13.85;6.20;;;;;;;-2.65;67.60;94524.59;5005967;28;20026;-69
2022/01/26 10:40:18;;;;;;;15.30;6.95;;;;;;;-2.65;67.79;94522.00;5005921;28;20030;-70
2022/01/26 10:43:10;;;;;;;14.77;6.93;;;;;;;-2.65;67.95;94515.97;5006075;28;20137;-70
2022/01/26 10:45:55;;;;;;;15.82;7.60;;;;;;;-2.58;68.46;94516.72;5005723;28;20029;-67
2022/01/26 10:53:40;;;;;;;13.75;6.88;;;;;;;-2.60;68.97;94520.56;5005776;28;20366;-70
2022/01/26 10:56:06;;;;;;;18.40;7.13;;;;;;;-2.64;68.84;94509.75;5005701;28;20030;-69
2022/01/26 10:58:32;;;;;;;19.02;7.97;;;;;;;-2.48;68.23;94513.63;5005175;28;20084;-69
2022/01/26 11:00:57;;;;;;;16.83;6.47;;;;;;;-2.50;68.19;94513.06;5005350;28;20022;-69
2022/01/26 11:03:23;;;;;;;14.57;7.07;;;;;;;-2.61;68.83;94514.53;5005810;28;20067;-69
2022/01/26 11:05:48;;;;;;;12.95;5.78;;;;;;;-2.62;68.54;94513.75;5005337;28;20026;-69
2022/01/26 11:08:16;;;;;;;15.05;6.07;;;;;;;-2.60;69.25;94505.72;5005162;28;20018;-69
2022/01/26 11:10:45;;;;;;;12.80;6.75;;;;;;;-2.51;68.95;94506.22;5005325;28;20019;-68
2022/01/26 11:13:11;;;;;;;18.17;8.05;;;;;;;-2.45;68.97;94500.94;5005245;28;20029;-68
2022/01/26 11:15:36;;;;;;;17.35;7.70;;;;;;;-2.34;68.34;94502.03;5005199;28;20211;-68
2022/01/26 11:18:10;;;;;;;20.33;8.50;;;;;;;-2.15;68.65;94504.66;5004006;28;20014;-68
2022/01/26 11:20:49;;;;;;;13.32;6.15;;;;;;;-2.16;68.09;94505.66;5005226;28;20046;-69
2022/01/26 11:23:17;;;;;;;15.18;7.25;;;;;;;-2.35;67.96;94497.03;4987672;28;20026;-69
2022/01/26 11:25:45;;;;;;;11.30;4.88;;;;;;;-2.48;68.37;94513.63;5004816;28;20318;-69
2022/01/26 11:28:23;;;;;;;14.02;6.10;;;;;;;-2.36;68.30;94511.91;5005074;28;20137;-69
2022/01/26 11:30:50;;;;;;;13.10;6.22;;;;;;;-2.34;68.43;94491.59;5005024;28;20026;-69
2022/01/26 11:33:19;;;;;;;19.05;6.72;;;;;;;-2.23;68.18;94501.31;5005044;28;20275;-69
2022/01/26 11:35:48;;;;;;;13.00;6.65;;;;;;;-2.27;68.23;94502.75;5004704;28;20019;-69
2022/01/26 11:42:11;;;;;;;13.75;6.90;;;;;;;-2.31;68.34;94485.13;5004835;28;20033;-69
2022/01/26 11:46:58;;;;;;;14.90;6.35;;;;;;;-2.22;68.29;94478.59;5004579;28;20037;-69
2022/01/26 11:49:35;;;;;;;17.77;5.78;;;;;;;-2.14;67.78;94474.91;5004461;28;20122;-68
2022/01/26 11:52:01;;;;;;;13.43;5.55;;;;;;;-2.14;67.77;94483.53;5004260;28;20089;-69
2022/01/26 11:54:40;;;;;;;11.68;6.18;;;;;;;-2.05;67.89;94476.22;5004356;28;20022;-69
2022/01/26 11:57:12;;;;;;;14.88;7.50;;;;;;;-1.95;67.84;94478.31;5003940;28;20022;-69
2022/01/26 11:59:46;;;;;;;15.15;6.55;;;;;;;-1.92;67.57;94462.97;5004681;28;20133;-69
2022/01/26 12:02:31;;;;;;;12.60;6.13;;;;;;;-1.93;68.09;94471.84;5003180;28;20056;-69
2022/01/26 12:05:05;;;;;;;15.23;6.32;;;;;;;-1.95;67.82;94471.25;5004395;28;20037;-69
2022/01/26 12:07:31;;;;;;;13.63;6.63;;;;;;;-1.92;68.23;94481.25;5004107;28;20026;-69
2022/01/26 12:09:56;;;;;;;11.90;5.72;;;;;;;-1.91;68.34;94476.84;5004223;28;20204;-69
2022/01/26 12:12:24;;;;;;;14.93;7.05;;;;;;;-1.88;68.83;94476.41;5004122;28;20022;-69
2022/01/26 12:15:11;;;;;;;16.02;8.48;;;;;;;-1.83;68.72;94473.94;5004013;28;20026;-68
2022/01/26 12:17:56;;;;;;;15.25;7.82;;;;;;;-1.78;68.66;94475.88;5003825;28;20248;-69
2022/01/26 12:41:15;;;;;;;18.02;7.30;;;;;;;-1.99;70.66;94461.44;4984824;28;20042;-69
2022/01/26 12:42:25;;;;;;;14.30;7.40;;;;;;;-1.94;70.24;94453.75;5003445;28;20018;-69
2022/01/26 12:45:01;;;;;;;17.63;6.22;;;;;;;-1.90;69.33;94450.47;5003676;28;20054;-68
2022/01/26 12:47:28;;;;;;;13.60;6.43;;;;;;;-1.92;69.38;94455.13;5003602;28;20088;-69
2022/01/26 12:49:55;;;;;;;14.55;6.57;;;;;;;-1.87;69.40;94446.66;5003528;28;20129;-69
2022/01/26 12:52:22;;;;;;;10.63;5.40;;;;;;;-1.94;69.36;94456.38;5003533;28;20125;-68
2022/01/26 12:54:48;;;;;;;15.10;6.50;;;;;;;-1.99;69.70;94454.44;4986072;28;20320;-69
2022/01/26 12:57:13;;;;;;;14.15;6.05;;;;;;;-1.91;69.30;94453.34;5003146;28;20085;-69
2022/01/26 12:59:39;;;;;;;14.65;5.50;;;;;;;-1.97;68.91;94455.00;5003150;28;20218;-69
2022/01/26 13:02:05;;;;;;;13.45;6.53;;;;;;;-2.02;69.38;94449.63;5003375;28;20077;-69
2022/01/26 13:04:30;;;;;;;16.25;7.20;;;;;;;-1.99;69.30;94448.38;5002950;28;20026;-69
2022/01/26 13:06:55;;;;;;;14.07;6.68;;;;;;;-1.89;68.99;94451.31;5003390;28;20028;-69
2022/01/26 13:09:43;;;;;;;11.45;5.60;;;;;;;-2.04;68.63;94447.22;5003266;28;20248;-69
2022/01/26 13:12:09;;;;;;;11.38;5.00;;;;;;;-2.05;68.54;94444.88;5002495;28;20041;-69
2022/01/26 13:14:44;;;;;;;14.82;5.63;;;;;;;-2.09;68.43;94438.50;5003170;28;20208;-71
2022/01/26 13:17:35;;;;;;;11.02;4.72;;;;;;;-2.07;68.08;94429.41;5003304;28;20045;-70
2022/01/26 13:22:51;;;;;;;12.82;5.43;;;;;;;-2.00;68.26;94431.13;5002721;28;20084;-68
2022/01/26 13:42:55;;;;;;;14.68;7.65;;;;;;;-1.81;67.77;94445.78;4976967;28;20069;-70
2022/01/26 13:48:16;;;;;;;13.60;6.40;;;;;;;-1.91;68.10;94448.91;5001044;28;20395;-70
2022/01/26 13:50:53;;;;;;;15.10;8.07;;;;;;;-1.82;68.40;94429.28;5009133;28;20022;-70
2022/01/26 13:53:23;;;;;;;11.75;6.25;;;;;;;-1.74;67.91;94427.38;5009397;28;20044;-68
2022/01/26 13:58:39;;;;;;;17.23;7.75;;;;;;;-1.65;67.63;94449.56;5009154;28;20026;-68
2022/01/26 14:01:15;;;;;;;17.17;6.75;;;;;;;-1.68;67.64;94442.97;4991691;28;20064;-69
2022/01/26 14:03:42;;;;;;;16.38;7.65;;;;;;;-1.71;68.00;94442.59;5009325;28;20026;-69
2022/01/26 14:06:09;;;;;;;11.63;6.00;;;;;;;-1.64;67.72;94454.56;5009089;28;20018;-69
2022/01/26 14:08:35;;;;;;;16.15;7.38;;;;;;;-1.69;67.87;94453.63;5009182;28;20018;-69
2022/01/26 14:11:00;;;;;;;15.82;7.40;;;;;;;-1.61;67.99;94466.38;5008971;28;20025;-69
2022/01/26 14:13:27;;;;;;;11.25;6.63;;;;;;;-1.63;66.88;94465.81;5009189;28;20037;-69
2022/01/26 14:15:57;;;;;;;7.45;3.95;;;;;;;-1.78;66.50;94460.22;5009034;28;20109;-68
2022/01/26 14:21:08;;;;;;;12.75;5.75;;;;;;;-1.57;66.87;94464.94;5009082;28;20052;-68
2022/01/26 14:26:11;;;;;;;14.93;6.53;;;;;;;-1.60;67.03;94468.00;5009300;28;20037;-69
2022/01/26 14:28:37;;;;;;;8.90;4.43;;;;;;;-1.58;65.79;94473.00;5009009;28;20269;-70
2022/01/26 14:56:15;;;;;;;12.25;5.72;;;;;;;-1.69;65.94;94485.00;4990053;28;20237;-68